Hendrix, North Carolina
Current Conditions -  °F | °C
As of 9:55 PM on Wednesday 22 Oct 2014 (Local Time) from KTNB Reporting Station
Clear Clear  
Wind Chill: 34°   Ceiling: Unl
Heat Index: 41°   Visibility: 10mi
Dew Point: 34°   Wind: 15mph
Humidity: 74%   Direction: 300°WNW
Pressure: 30.12"   Gusts: 26mph
Location:  36.1322°N, 81.415°W
Report Text: KTNB 230155Z AUTO 30013G23KT 10SM CLR 05/01 A3012 RMK AO2 T00520010
Loading
Personal Weather Stations






























Interactive Weather Map
Tropical Storm Tracking
New forecast layout! Learn more

10-Day Weather Forecast

Advertisements
Track Severe Weather on mobile